Airfield :







YOU CAN JOIN US ON...

 
LOGIN :

Register | Disclaimer

   EN    FR    IT 

 









Legend :    VFR   Marginal VFR   IFR   Intensive IFR   Very Intensive IFR
Visi :
Ceiling :
>= 8 km
>= 3000ft
5 to 8 km
1000 to 3000 ft
1500m to 5 km
500 to 1000 ft
800 to 1500m
200 to 500 ft
< 800m
< 200 ft
Symbols :   Thunderstorms  Fog  Heavy snow  Heavy precipitations  Wind > 20 kt






- Airport Elevation : 244 ft
- IATA code : YQB


CYQB - Quebec - Jean Lesage Int.

CURRENT METAR :
  • 010400Z 07014KT 15SM FEW015 BKN100 01/M02 A3007 RMK SF1AC6 SF TR OVR STLAWR SLP188

EXPIRED METARs :
  • 010300Z 07014KT 15SM FEW015 SCT027 01/M02 A3008 WS RWYFE RMK SF1SC4 SF TR OVR ST LAWR SLP190
  • 010200Z 07009KT 15SM FEW015 BKN036 BKN063 01/M03 A3009 RMK SC1SC5SC2 SC TR SLP196

TAF TAF CYQB
Valid from the 01 at 00:00 until the 02 at 00:00 UTC


312340Z 0100/0124 07012G22KT P6SM BKN050
FM010300 06010KT P6SM SCT015 OVC025
TEMPO 0103/0110 BKN015 OVC025
FM011000 06010KT 6SM -SN SCT015 OVC025
FM011200 07012KT 2SM -SN OVC015
FM011600 08012KT 3SM -RASN OVC015
FM011800 08012KT P6SM -SHRA BKN015 OVC025
FM012200 08010KT P6SM OVC030 RMK NXT FCST BY 010600Z
ATIS : ENG : +1 418-871-6893 FRA : +1 418-871-6895



MET'MAP, your aeronautical weather chart ! - Copyright ORBIFLY December 2007 - Disclaimer

ORBIFLY MET'MAP TEAM :

Programming & Development : Alexandra Zaïnal
Concept & original design : Baudouin d'Aumeries
Assistance for programming : Marc-Olivier Méhu
Technical & hardware support : Manuel Goepfert

Contact : metmap@orbifly.com




SOURCES & CREDITS :

   NOAA